createdAt,value
2023-11-07T00:04:48.842Z,97592.72
2023-11-07T00:09:51.408Z,97602.38
2023-11-07T00:14:53.274Z,97606.25
2023-11-07T00:19:57.896Z,97615.84
2023-11-07T00:25:00.261Z,97616.22
2023-11-07T00:30:02.186Z,97633.28
2023-11-07T00:35:04.329Z,97642.50
2023-11-07T00:40:08.001Z,97650.19
2023-11-07T00:45:10.087Z,97650.91
2023-11-07T00:50:12.124Z,97658.53
2023-11-07T00:55:13.956Z,97655.06
2023-11-07T01:00:16.621Z,97667.81
2023-11-07T01:05:19.704Z,97672.41
2023-11-07T01:10:22.504Z,97682.53
2023-11-07T01:15:24.525Z,97680.63
2023-11-07T01:20:26.336Z,97680.19
2023-11-07T01:25:30.795Z,97690.34
2023-11-07T01:30:32.753Z,97692.69
2023-11-07T01:35:34.591Z,97698.88
2023-11-07T01:40:36.441Z,97688.81
2023-11-07T01:45:38.278Z,97695.00
2023-11-07T01:50:41.179Z,97706.69
2023-11-07T01:55:43.330Z,97696.97
2023-11-07T02:00:45.428Z,97703.63
2023-11-07T02:05:47.265Z,97708.25
2023-11-07T02:10:49.295Z,97716.81
2023-11-07T02:15:51.220Z,97726.59
2023-11-07T02:20:53.154Z,97718.13
2023-11-07T02:25:55.199Z,97723.22
2023-11-07T02:30:58.195Z,97723.31
2023-11-07T02:36:01.444Z,97721.84
2023-11-07T02:41:03.397Z,97710.97
2023-11-07T02:46:05.506Z,97711.75
2023-11-07T02:51:07.429Z,97724.13
2023-11-07T02:56:09.535Z,97711.66
2023-11-07T03:01:11.507Z,97721.75
2023-11-07T03:06:13.444Z,97731.09
2023-11-07T03:11:15.449Z,97736.56
2023-11-07T03:16:17.278Z,97739.72
2023-11-07T03:21:20.253Z,97733.53
2023-11-07T03:26:22.116Z,97741.72
2023-11-07T03:31:23.942Z,97751.47
2023-11-07T03:36:25.765Z,97742.19
2023-11-07T03:41:29.090Z,97740.63
2023-11-07T03:46:31.177Z,97742.16
2023-11-07T03:51:33.104Z,97746.03
2023-11-07T03:56:35.618Z,97749.16
2023-11-07T04:01:38.293Z,97751.88
2023-11-07T04:06:40.083Z,97755.34
2023-11-07T04:11:41.908Z,97753.78
2023-11-07T04:16:43.747Z,97761.53
2023-11-07T04:21:45.562Z,97761.16
2023-11-07T04:26:47.420Z,97765.47
2023-11-07T04:31:49.307Z,97764.31
2023-11-07T04:36:54.788Z,97754.59
2023-11-07T04:41:56.720Z,97759.97
2023-11-07T04:46:58.817Z,97757.91
2023-11-07T04:52:03.170Z,97753.63
2023-11-07T04:57:08.816Z,97764.88
2023-11-07T05:02:11.399Z,97761.41
2023-11-07T05:07:15.014Z,97762.22
2023-11-07T05:12:16.966Z,97759.50
2023-11-07T05:17:18.821Z,97772.25
2023-11-07T05:22:21.306Z,97770.31
2023-11-07T05:27:23.099Z,97776.84
2023-11-07T05:32:25.003Z,97774.47
2023-11-07T05:37:27.141Z,97783.78
2023-11-07T05:42:28.945Z,97789.94
2023-11-07T05:47:31.042Z,97792.53
2023-11-07T05:52:33.521Z,97792.81
2023-11-07T05:57:37.036Z,97791.91
2023-11-07T06:02:39.473Z,97794.81
2023-11-07T06:07:41.429Z,97788.16
2023-11-07T06:12:43.281Z,97803.22
2023-11-07T06:17:45.263Z,97805.13
2023-11-07T06:22:48.480Z,97809.34
2023-11-07T06:27:52.357Z,97817.88
2023-11-07T06:32:54.401Z,97807.03
2023-11-07T06:37:56.419Z,97814.53
2023-11-07T06:42:59.144Z,97825.16
2023-11-07T06:48:01.220Z,97826.81
2023-11-07T06:53:03.141Z,97832.44
2023-11-07T06:58:05.628Z,97834.94
2023-11-07T07:03:07.989Z,97835.88
2023-11-07T07:08:09.878Z,97834.13
2023-11-07T07:13:11.876Z,97826.94
2023-11-07T07:18:19.589Z,97832.56
2023-11-07T07:23:26.035Z,97831.94
2023-11-07T07:28:28.135Z,97831.25
2023-11-07T07:33:30.019Z,97839.09
2023-11-07T07:38:33.586Z,97847.00
2023-11-07T07:43:35.519Z,97854.06
2023-11-07T07:48:37.538Z,97852.66
2023-11-07T07:53:39.437Z,97852.72
2023-11-07T07:58:42.725Z,97850.00
2023-11-07T08:03:44.800Z,97852.75
2023-11-07T08:08:47.102Z,97857.50
2023-11-07T08:13:49.009Z,97861.81
2023-11-07T08:18:51.037Z,97863.03
2023-11-07T08:23:53.000Z,97851.41
2023-11-07T08:28:54.822Z,97853.03
2023-11-07T08:33:57.590Z,97865.56
2023-11-07T08:38:59.466Z,97861.28
2023-11-07T08:44:01.285Z,97856.22
2023-11-07T08:49:03.374Z,97869.81
2023-11-07T08:54:05.377Z,97879.56
2023-11-07T08:59:09.752Z,97878.81
2023-11-07T09:04:11.594Z,97868.38
2023-11-07T09:09:16.782Z,97875.78
2023-11-07T09:14:20.215Z,97876.53
2023-11-07T09:19:25.061Z,97889.72
2023-11-07T09:24:27.166Z,97885.72
2023-11-07T09:29:28.982Z,97887.75
2023-11-07T09:34:32.151Z,97888.59
2023-11-07T09:39:34.873Z,97882.38
2023-11-07T09:44:39.723Z,97875.41
2023-11-07T09:49:42.199Z,97882.03
2023-11-07T09:54:49.181Z,97882.84
2023-11-07T10:00:00.243Z,97886.31
2023-11-07T10:05:04.375Z,97887.09
2023-11-07T10:10:08.090Z,97878.91
2023-11-07T10:15:17.480Z,97885.19
2023-11-07T10:20:20.578Z,97892.97
2023-11-07T10:25:37.065Z,97883.19
2023-11-07T10:30:47.863Z,97873.88
2023-11-07T10:35:53.278Z,97871.50
2023-11-07T10:40:55.188Z,97867.22
2023-11-07T10:46:00.635Z,97853.22
2023-11-07T10:51:06.417Z,97843.81
2023-11-07T10:56:16.438Z,97849.66
2023-11-07T11:01:20.461Z,97842.25
2023-11-07T11:06:26.015Z,97843.03
2023-11-07T11:11:32.477Z,97841.81
2023-11-07T11:16:35.179Z,97838.31
2023-11-07T11:21:58.849Z,97834.38
2023-11-07T11:27:22.825Z,97835.97
2023-11-07T11:32:28.492Z,97837.94
2023-11-07T11:38:17.555Z,97841.50
2023-11-07T11:43:33.242Z,97839.16
2023-11-07T11:48:56.686Z,97829.03
2023-11-07T11:54:00.513Z,97821.25
2023-11-07T11:59:12.508Z,97825.91
2023-11-07T12:04:35.150Z,97819.66
2023-11-07T12:09:38.322Z,97822.41
2023-11-07T12:14:50.323Z,97822.00
2023-11-07T12:20:08.118Z,97824.34
2023-11-07T12:25:18.073Z,97824.72
2023-11-07T12:30:20.188Z,97819.69
2023-11-07T12:35:23.208Z,97811.88
2023-11-07T12:40:25.683Z,97812.28
2023-11-07T12:45:33.115Z,97800.94
2023-11-07T12:50:44.308Z,97793.94
2023-11-07T12:55:53.697Z,97793.16
2023-11-07T13:00:57.520Z,97791.63
2023-11-07T13:06:06.632Z,97783.06
2023-11-07T13:11:22.216Z,97791.22
2023-11-07T13:16:24.548Z,97788.88
2023-11-07T13:21:27.009Z,97794.63
2023-11-07T13:26:30.406Z,97792.06
2023-11-07T13:31:33.607Z,97798.91
2023-11-07T13:36:35.665Z,97791.59
2023-11-07T13:41:37.544Z,97799.41
2023-11-07T13:46:40.200Z,97805.31
2023-11-07T13:51:42.708Z,97793.75
2023-11-07T13:56:44.712Z,97793.56
2023-11-07T14:01:46.578Z,97797.66
2023-11-07T14:06:48.701Z,97790.38
2023-11-07T14:11:51.416Z,97791.16
2023-11-07T14:16:53.671Z,97797.47
2023-11-07T14:21:56.510Z,97804.88
2023-11-07T14:26:58.328Z,97800.56
2023-11-07T14:32:00.165Z,97803.28
2023-11-07T14:37:02.025Z,97804.44
2023-11-07T14:42:07.707Z,97803.25
2023-11-07T14:47:12.191Z,97803.19
2023-11-07T14:52:14.052Z,97809.81
2023-11-07T14:57:16.194Z,97815.63
2023-11-07T15:02:25.413Z,97817.94
2023-11-07T15:07:29.770Z,97819.50
2023-11-07T15:12:31.680Z,97824.53
2023-11-07T15:17:33.582Z,97819.41
2023-11-07T15:22:36.555Z,97824.84
2023-11-07T15:27:45.401Z,97819.38
2023-11-07T15:32:48.850Z,97822.53
2023-11-07T15:37:50.948Z,97827.19
2023-11-07T15:42:52.773Z,97830.25
2023-11-07T15:47:54.777Z,97831.38
2023-11-07T15:53:07.390Z,97825.91
2023-11-07T15:58:11.545Z,97827.84
2023-11-07T16:03:15.922Z,97832.47
2023-11-07T16:08:18.976Z,97813.34
2023-11-07T16:13:21.078Z,97815.66
2023-11-07T16:18:24.038Z,97819.56
2023-11-07T16:23:26.559Z,97812.91
2023-11-07T16:28:28.817Z,97821.50
2023-11-07T16:33:30.704Z,97817.50
2023-11-07T16:38:32.635Z,97826.03
2023-11-07T16:43:34.903Z,97838.47
2023-11-07T16:48:36.795Z,97836.59
2023-11-07T16:53:40.107Z,97834.31
2023-11-07T16:58:42.060Z,97831.63
2023-11-07T17:03:44.813Z,97838.69
2023-11-07T17:08:47.154Z,97842.91
2023-11-07T17:13:48.981Z,97840.13
2023-11-07T17:18:50.909Z,97839.22
2023-11-07T17:23:53.481Z,97844.63
2023-11-07T17:28:57.383Z,97845.41
2023-11-07T17:33:59.320Z,97850.44
2023-11-07T17:39:02.303Z,97848.44
2023-11-07T17:44:04.984Z,97849.94
2023-11-07T17:49:08.155Z,97852.22
2023-11-07T17:54:10.886Z,97854.41
2023-11-07T17:59:13.450Z,97847.34
2023-11-07T18:04:16.067Z,97844.25
2023-11-07T18:09:19.723Z,97842.31
2023-11-07T18:14:23.506Z,97850.47
2023-11-07T18:19:25.859Z,97860.91
2023-11-07T18:24:28.414Z,97853.47
2023-11-07T18:29:32.369Z,97847.97
2023-11-07T18:34:34.928Z,97854.50
2023-11-07T18:39:37.664Z,97856.09
2023-11-07T18:44:41.852Z,97855.34
2023-11-07T18:49:43.926Z,97861.13
2023-11-07T18:54:45.905Z,97863.03
2023-11-07T18:59:47.699Z,97860.31
2023-11-07T19:04:49.648Z,97860.25
2023-11-07T19:09:52.038Z,97862.56
2023-11-07T19:14:55.705Z,97860.63
2023-11-07T19:19:57.549Z,97867.97
2023-11-07T19:24:59.420Z,97863.69
2023-11-07T19:30:01.414Z,97866.34
2023-11-07T19:35:06.673Z,97860.16
2023-11-07T19:40:09.140Z,97857.66
2023-11-07T19:45:11.237Z,97868.47
2023-11-07T19:50:14.310Z,97857.16
2023-11-07T19:55:16.753Z,97855.16
2023-11-07T20:00:25.070Z,97853.88
2023-11-07T20:05:30.525Z,97861.59
2023-11-07T20:10:32.612Z,97865.47
2023-11-07T20:15:34.463Z,97862.72
2023-11-07T20:20:36.616Z,97874.66
2023-11-07T20:25:38.463Z,97879.63
2023-11-07T20:30:40.296Z,97875.59
2023-11-07T20:35:42.683Z,97875.97
2023-11-07T20:40:44.615Z,97879.19
2023-11-07T20:45:47.229Z,97883.44
2023-11-07T20:50:49.230Z,97877.69
2023-11-07T20:55:51.164Z,97872.75
2023-11-07T21:00:53.424Z,97881.25
2023-11-07T21:05:55.291Z,97876.97
2023-11-07T21:10:58.502Z,97875.09
2023-11-07T21:16:00.357Z,97874.97
2023-11-07T21:21:02.817Z,97870.19
2023-11-07T21:26:05.490Z,97867.06
2023-11-07T21:31:07.474Z,97875.41
2023-11-07T21:36:10.298Z,97876.84
2023-11-07T21:41:12.538Z,97878.44
2023-11-07T21:46:14.568Z,97880.72
2023-11-07T21:51:17.191Z,97886.44
2023-11-07T21:56:30.444Z,97872.09
2023-11-07T22:01:34.603Z,97882.84
2023-11-07T22:06:37.335Z,97878.91
2023-11-07T22:11:39.230Z,97890.41
2023-11-07T22:16:41.989Z,97885.59
2023-11-07T22:21:47.262Z,97889.38
2023-11-07T22:26:50.186Z,97884.53
2023-11-07T22:31:52.529Z,97890.50
2023-11-07T22:36:54.347Z,97881.81
2023-11-07T22:41:56.877Z,97897.91
2023-11-07T22:46:58.667Z,97897.09
2023-11-07T22:52:00.476Z,97896.16
2023-11-07T22:57:03.089Z,97904.53
2023-11-07T23:02:05.837Z,97903.38
2023-11-07T23:07:07.848Z,97906.97
2023-11-07T23:12:09.820Z,97907.25
2023-11-07T23:17:12.643Z,97918.09
2023-11-07T23:22:14.506Z,97912.22
2023-11-07T23:27:16.441Z,97915.13
2023-11-07T23:32:18.277Z,97921.28
2023-11-07T23:37:21.865Z,97913.06
2023-11-07T23:42:23.915Z,97911.94
2023-11-07T23:47:25.995Z,97915.09
2023-11-07T23:52:27.833Z,97919.00
2023-11-07T23:57:29.849Z,97929.03
